METAR AND TAF INFORMATION
METAR FOR LTBA
ADDS - METARS form results

(1420 UTC 20 April 2018)
Data provider http://aviationweather.gov/adds/metars/
 
METAR text: LTBA 201350Z 36017KT 9999 SCT035 BKN100 14/09 Q1019 NOSIG RMK RWY17L 02014KT 350V050 RWY05 36015KT RWY23 02014KT
Conditions at: LTBA (ISTANBUL/ATATURK, TR) observed 1350 UTC 20 April 2018
Temperature: 14.0°C (57°F)
Dewpoint: 9.0°C (48°F) [RH = 72%]
Pressure (altimeter): 30.09 inches Hg (1019.0 mb)
Winds: from the N (360 degrees) at 20 MPH (17 knots; 8.8 m/s)
Visibility: 6 or more miles (10+ km)
Ceiling: 10000 feet AGL
Clouds: scattered clouds at 3500 feet AGL
broken clouds at 10000 feet AGL
Weather: no significant weather observed at this time

Forecast for: LTBA (ISTANBUL/ATATURK, TR)
Text: TAF LTBA 201040Z 2012/2118 01012KT 9999 SCT035 BKN090
Forecast period: 1200 to 1500 UTC 20 April 2018
Forecast type: FROM: standard forecast or significant change
Winds: from the N (10 degrees) at 14 MPH (12 knots; 6.2 m/s)
Visibility: 6 or more miles (10+ km)
Ceiling: 9000 feet AGL
Clouds: scattered clouds at 3500 feet AGL
broken clouds at 9000 feet AGL
Weather: no significant weather forecast for this period
Forecast for: LTBA (ISTANBUL/ATATURK, TR)
Text: TAF LTBA 201040Z 2012/2118 01012KT 9999 SCT035 BKN090
Forecast period: 1200 to 1500 UTC 20 April 2018
Forecast type: FROM: standard forecast or significant change
Winds: from the N (10 degrees) at 14 MPH (12 knots; 6.2 m/s)
Visibility: 6 or more miles (10+ km)
Ceiling: 9000 feet AGL
Clouds: scattered clouds at 3500 feet AGL
broken clouds at 9000 feet AGL
Weather: no significant weather forecast for this period
Forecast for: LTBA (ISTANBUL/ATATURK, TR)
Text: TAF LTBA 201040Z 2012/2118 01012KT 9999 SCT035 BKN090
Forecast period: 1200 to 1600 UTC 20 April 2018
Forecast type: TEMPORARY: The following changes expected for less than half the time period
Winds: from the NNE (30 degrees) at 17 MPH (15 knots; 7.8 m/s)
gusting to 29 MPH (25 knots; 13.0 m/s)
Weather: no significant weather forecast for this period
Forecast for: LTBA (ISTANBUL/ATATURK, TR)
Text: TAF LTBA 201040Z 2012/2118 01012KT 9999 SCT035 BKN090
Forecast period: 1200 to 1600 UTC 20 April 2018
Forecast type: TEMPORARY: The following changes expected for less than half the time period
Winds: from the NNE (30 degrees) at 17 MPH (15 knots; 7.8 m/s)
gusting to 29 MPH (25 knots; 13.0 m/s)
Weather: no significant weather forecast for this period
Forecast for: LTBA (ISTANBUL/ATATURK, TR)
Text: TAF LTBA 201040Z 2012/2118 01012KT 9999 SCT035 BKN090
Forecast period: 1500 UTC 20 April 2018 to 0400 UTC 21 April 2018
Forecast type: BECOMING: Conditions expected to become as follows by 1800 UTC 20 April 2018
Winds: variable direction winds at 2 MPH (2 knots; 1.0 m/s)
Visibility: 6 or more miles (10+ km)
Weather: NSW  (no significant weather)
Forecast for: LTBA (ISTANBUL/ATATURK, TR)
Text: TAF LTBA 201040Z 2012/2118 01012KT 9999 SCT035 BKN090
Forecast period: 1500 UTC 20 April 2018 to 0400 UTC 21 April 2018
Forecast type: BECOMING: Conditions expected to become as follows by 1800 UTC 20 April 2018
Winds: variable direction winds at 2 MPH (2 knots; 1.0 m/s)
Visibility: 6 or more miles (10+ km)
Weather: NSW  (no significant weather)
Forecast for: LTBA (ISTANBUL/ATATURK, TR)
Text: TAF LTBA 201040Z 2012/2118 01012KT 9999 SCT035 BKN090
Forecast period: 0100 to 0400 UTC 21 April 2018
Forecast type: PROBABLE: 30 percent likelihood of the following during this time
Visibility: 2.49 miles (4.01 km)
Weather: BR  (mist)
Forecast for: LTBA (ISTANBUL/ATATURK, TR)
Text: TAF LTBA 201040Z 2012/2118 01012KT 9999 SCT035 BKN090
Forecast period: 0100 to 0400 UTC 21 April 2018
Forecast type: PROBABLE: 30 percent likelihood of the following during this time
Visibility: 2.49 miles (4.01 km)
Weather: BR  (mist)
Forecast for: LTBA (ISTANBUL/ATATURK, TR)
Text: TAF LTBA 201040Z 2012/2118 01012KT 9999 SCT035 BKN090
Forecast period: 0400 to 1800 UTC 21 April 2018
Forecast type: BECOMING: Conditions expected to become as follows by 0700 UTC 21 April 2018
Winds: from the NNE (20 degrees) at 15 MPH (13 knots; 6.8 m/s)
Visibility: 6 or more miles (10+ km)
Clouds: scattered clouds at 3500 feet AGL
Weather: NSW  (no significant weather)
Forecast for: LTBA (ISTANBUL/ATATURK, TR)
Text: TAF LTBA 201040Z 2012/2118 01012KT 9999 SCT035 BKN090
Forecast period: 0400 to 1800 UTC 21 April 2018
Forecast type: BECOMING: Conditions expected to become as follows by 0700 UTC 21 April 2018
Winds: from the NNE (20 degrees) at 15 MPH (13 knots; 6.8 m/s)
Visibility: 6 or more miles (10+ km)
Clouds: scattered clouds at 3500 feet AGL
Weather: NSW  (no significant weather)

 AIRPORT MAP

 RUNWAY INFORMATION
Runway 05 Runway length 8530 ft Runway width 197 ft
Runway elevation 93 ft Runway displaced threshold 492 ft Runway heading 59
Runway 23 Runway length 8530 ft Runway width 197 ft
Runway elevation 90 ft Runway displaced threshold 0 ft Runway heading 239
Runway 17L Runway length 9843 ft Runway width 148 ft
Runway elevation 157 ft Runway displaced threshold 0 ft Runway heading 178
Runway 35R Runway length 9843 ft Runway width 148 ft
Runway elevation 100 ft Runway displaced threshold 0 ft Runway heading 358
Runway 17R Runway length 9843 ft Runway width 148 ft
Runway elevation 163 ft Runway displaced threshold 0 ft Runway heading 178
Runway 35L Runway length 9843 ft Runway width 148 ft
Runway elevation 102 ft Runway displaced threshold 0 ft Runway heading 358

 AIRPORT FREQUENCIES
Type APP Name YESILKOY A Frequency 120.5 MHZ
Type ATIS Name ATIS Frequency 128.2 MHZ
Type CLD Name YESILKOY D Frequency 121.7 MHZ
Type GND Name YESILKOY G Frequency 121.8 MHZ
Type RMP Name YESILKOY R Frequency 121.9 MHZ
Type TWR Name YESILKOY T Frequency 118.1 MHZ

 AIRPORT NEAR NAVIGATION AIDS
Type VORTAC Name Istanbul Frequency 112500 KHZ